Disclaimer

Please do not use the information listed here in-flight or in-navigation, as they are not provided to us by the airports but are provided by volunteers, so they might be outdated.

Search


Regions


Airport information page

Radio informations:
ULIN TWR - 118.4 MHz
BANJARMASIN INFO - 8198 MHz
Automatic Terminal Information Service (ATIS) - 128.05 MHz
BANJARMASIN APP - 126.5 MHz

Airport informations:
Latitude: 03° 26' 32.48" S
Longitude: 114° 45' 45.19" E
Elevation: 66 feet - 20 meters
Operating hours: Remarks
Operating agency: Civil government, landing fees and diplomatic clearance may be required
Timezone: UTC+8
Fuel: Jet A1, without icing nhibitor.

100/130 octane gasoline, leaded, MIL-L-5572F (GREEN)

Runway information:
10/28 - 8202 x 148 feet< - >2500 x 45 meters

Recent METARs:
WAOO 190300Z 32006KT 9999 SCT018 28/24 Q1013
WAOO 190400Z 34003KT 9999 SCT020 31/25 Q1012
WAOO 190400Z 34003KT 9999 SCT020 31/25 Q1012

Airport on the map: